Time;durP1;ratioP1;P1;durP2;ratioP2;P2;SDS_P1;SDS_P2;PMS_P1;PMS_P2;Temp;Humidity;BMP_temperature;BMP_pressure;BME280_temperature;BME280_humidity;BME280_pressure;Samples;Min_cycle;Max_cycle;Signal;HPM_P1;HPM_P2
2023/03/01 03:03:06;;;;;;;21.93;19.60;;;-0.30;99.90;;;;;;4980041;28;20459;-81
2023/03/01 03:05:35;;;;;;;24.10;20.60;;;-0.20;99.90;;;;;;4981740;28;20449;-80
2023/03/01 03:08:04;;;;;;;23.23;19.83;;;-0.20;99.90;;;;;;4981208;28;20997;-80
2023/03/01 03:10:39;;;;;;;25.10;19.97;;;-0.20;99.90;;;;;;4982125;28;20474;-80
2023/03/01 03:13:08;;;;;;;22.57;20.03;;;-0.20;99.90;;;;;;4974577;28;20455;-80
2023/03/01 03:15:36;;;;;;;23.53;20.10;;;-0.20;99.90;;;;;;4974874;28;20456;-80
2023/03/01 03:18:07;;;;;;;22.43;19.70;;;-0.20;99.90;;;;;;4974508;28;20493;-80
2023/03/01 03:20:34;;;;;;;25.17;21.43;;;-0.20;99.90;;;;;;4972417;28;20450;-79
2023/03/01 03:23:01;;;;;;;23.73;20.30;;;-0.20;99.90;;;;;;4975583;28;20458;-79
2023/03/01 03:25:29;;;;;;;21.73;19.43;;;-0.20;99.90;;;;;;4970193;28;20815;-80
2023/03/01 03:27:57;;;;;;;23.83;21.03;;;-0.20;99.90;;;;;;4967609;28;20495;-79
2023/03/01 03:30:26;;;;;;;28.07;21.40;;;-0.10;99.90;;;;;;4975614;28;20443;-81
2023/03/01 03:32:53;;;;;;;23.87;19.73;;;-0.20;99.90;;;;;;4975162;28;20443;-80
2023/03/01 03:35:24;;;;;;;21.47;19.10;;;-0.20;99.90;;;;;;4969467;28;20448;-80
2023/03/01 03:38:05;;;;;;;22.47;20.17;;;-0.20;99.90;;;;;;4952469;28;20446;-80
2023/03/01 03:40:36;;;;;;;24.67;20.37;;;-0.20;99.90;;;;;;4972894;28;20465;-81
2023/03/01 03:43:03;;;;;;;23.77;20.37;;;-0.20;99.90;;;;;;4969119;28;20446;-80
2023/03/01 03:45:32;;;;;;;24.30;21.43;;;-0.20;99.90;;;;;;4968910;28;20440;-81
2023/03/01 03:48:00;;;;;;;24.97;20.63;;;-0.10;99.90;;;;;;4971901;28;20483;-79
2023/03/01 03:50:28;;;;;;;24.93;20.50;;;-0.10;99.90;;;;;;4965470;28;20457;-79
2023/03/01 03:52:55;;;;;;;24.20;20.30;;;0.00;99.90;;;;;;4950287;28;20462;-87
2023/03/01 03:55:22;;;;;;;24.13;20.00;;;-0.10;99.90;;;;;;4957038;28;20828;-85
2023/03/01 03:57:51;;;;;;;22.87;20.20;;;-0.10;99.90;;;;;;4967378;28;20523;-89
2023/03/01 04:00:20;;;;;;;24.03;20.93;;;-0.10;99.90;;;;;;4960095;28;20460;-87
2023/03/01 04:02:48;;;;;;;22.60;19.83;;;-0.10;99.90;;;;;;4962164;28;20470;-88
2023/03/01 04:05:18;;;;;;;22.40;20.00;;;-0.10;99.90;;;;;;4960250;28;20452;-87
2023/03/01 04:07:47;;;;;;;24.13;20.37;;;-0.10;99.90;;;;;;4962534;28;20486;-88
2023/03/01 04:10:16;;;;;;;23.27;20.77;;;-0.10;99.90;;;;;;4963502;28;20890;-88
2023/03/01 04:12:44;;;;;;;22.73;20.30;;;0.00;99.90;;;;;;4970776;28;20480;-87
2023/03/01 04:15:15;;;;;;;23.03;19.93;;;0.00;99.90;;;;;;4971345;28;20969;-88
2023/03/01 04:17:44;;;;;;;22.47;19.33;;;0.00;99.90;;;;;;4970184;28;20459;-88
2023/03/01 04:20:13;;;;;;;24.07;20.47;;;0.00;99.90;;;;;;4955035;28;20452;-85
2023/03/01 04:22:41;;;;;;;26.50;21.93;;;0.00;99.90;;;;;;4960653;28;20486;-87
2023/03/01 04:25:13;;;;;;;24.53;21.70;;;0.00;99.90;;;;;;4967422;28;20542;-87
2023/03/01 04:27:41;;;;;;;23.63;21.10;;;0.00;99.90;;;;;;4965234;28;21011;-89
2023/03/01 04:30:09;;;;;;;24.00;21.17;;;0.00;99.90;;;;;;4973029;28;20518;-88
2023/03/01 04:32:36;;;;;;;24.87;21.50;;;0.00;99.90;;;;;;4973445;28;20550;-87
2023/03/01 04:35:04;;;;;;;23.40;20.90;;;0.10;99.90;;;;;;4970955;28;20527;-85
2023/03/01 04:37:31;;;;;;;25.50;20.50;;;0.10;99.90;;;;;;4969723;28;20456;-86
2023/03/01 04:39:58;;;;;;;24.03;20.97;;;0.10;99.90;;;;;;4974537;28;20456;-87
2023/03/01 04:42:26;;;;;;;25.30;21.10;;;0.20;99.90;;;;;;4973861;28;20514;-86
2023/03/01 04:44:53;;;;;;;23.70;21.10;;;0.10;99.90;;;;;;4965635;28;20447;-78
2023/03/01 04:47:20;;;;;;;22.83;20.37;;;0.10;99.90;;;;;;4977290;28;20449;-80
2023/03/01 04:49:47;;;;;;;24.83;20.73;;;0.10;99.90;;;;;;4976458;28;20462;-79
2023/03/01 04:52:14;;;;;;;24.40;21.47;;;0.10;99.90;;;;;;4974836;28;20475;-80
2023/03/01 04:54:40;;;;;;;24.73;20.63;;;0.10;99.90;;;;;;4972643;28;20477;-79
2023/03/01 04:57:07;;;;;;;24.53;21.07;;;0.10;99.90;;;;;;4977664;28;20981;-79
2023/03/01 04:59:36;;;;;;;26.63;21.70;;;0.10;99.90;;;;;;4959042;28;20457;-79
2023/03/01 05:02:03;;;;;;;26.90;22.20;;;0.10;99.90;;;;;;4970572;28;20481;-79
2023/03/01 05:04:31;;;;;;;25.93;21.50;;;0.10;99.90;;;;;;4972693;28;20449;-79
2023/03/01 05:06:58;;;;;;;25.80;22.73;;;0.10;99.90;;;;;;4975034;28;20440;-79
2023/03/01 05:09:25;;;;;;;25.07;21.00;;;0.10;99.90;;;;;;4965729;28;20565;-79
2023/03/01 05:11:52;;;;;;;26.07;21.53;;;0.10;99.90;;;;;;4974392;28;20479;-79
2023/03/01 05:14:19;;;;;;;27.03;21.30;;;0.10;99.90;;;;;;4981485;28;20451;-79
2023/03/01 05:16:47;;;;;;;24.43;21.03;;;0.10;99.90;;;;;;4978599;28;20447;-80
2023/03/01 05:19:15;;;;;;;28.37;22.90;;;0.10;99.90;;;;;;4980631;28;20445;-81
2023/03/01 05:24:23;;;;;;;25.40;21.60;;;0.10;99.90;;;;;;4973181;28;20512;-80
2023/03/01 05:26:51;;;;;;;22.93;20.37;;;0.10;99.90;;;;;;4979177;28;20460;-80
2023/03/01 05:29:24;;;;;;;25.90;22.13;;;0.20;99.90;;;;;;4972167;28;20477;-79
2023/03/01 05:31:54;;;;;;;24.27;21.63;;;0.20;99.90;;;;;;4975392;28;20506;-79
2023/03/01 05:34:25;;;;;;;24.43;21.53;;;0.20;99.90;;;;;;4982080;28;20445;-79
2023/03/01 05:36:52;;;;;;;25.90;20.87;;;0.30;99.90;;;;;;4983140;28;20466;-80
2023/03/01 05:39:22;;;;;;;23.67;20.40;;;0.20;99.90;;;;;;4975320;28;20444;-80
2023/03/01 05:41:48;;;;;;;24.60;21.37;;;0.10;99.90;;;;;;4973527;28;20538;-80
2023/03/01 05:44:15;;;;;;;25.93;22.33;;;0.10;99.90;;;;;;4969570;28;20466;-79
2023/03/01 05:46:42;;;;;;;26.63;22.67;;;0.20;99.90;;;;;;4976891;28;20487;-80
2023/03/01 05:49:10;;;;;;;25.97;21.43;;;0.30;99.90;;;;;;4978235;28;20497;-80
2023/03/01 05:51:37;;;;;;;25.53;21.93;;;0.20;99.90;;;;;;4973093;28;20454;-80
2023/03/01 05:54:05;;;;;;;27.03;23.03;;;0.20;99.90;;;;;;4981784;28;20452;-79
2023/03/01 05:56:34;;;;;;;24.77;22.13;;;0.30;99.90;;;;;;4981524;28;20490;-79
2023/03/01 05:59:01;;;;;;;26.20;22.40;;;0.20;99.90;;;;;;4969447;28;20450;-80
2023/03/01 06:01:29;;;;;;;28.00;22.00;;;0.20;99.90;;;;;;4979027;28;20479;-78
2023/03/01 06:03:56;;;;;;;27.33;22.57;;;0.30;99.90;;;;;;4977485;28;20442;-79
2023/03/01 06:06:24;;;;;;;26.00;21.40;;;0.30;99.90;;;;;;4972723;28;20985;-79
2023/03/01 06:08:52;;;;;;;25.27;22.17;;;0.40;99.90;;;;;;4971595;28;20489;-79
2023/03/01 06:11:19;;;;;;;27.53;22.57;;;0.40;99.90;;;;;;4975731;28;20489;-79
2023/03/01 06:13:46;;;;;;;25.00;21.37;;;0.40;99.90;;;;;;4978710;28;20440;-80
2023/03/01 06:16:14;;;;;;;24.10;21.17;;;0.40;99.90;;;;;;4965533;28;20508;-80
2023/03/01 06:18:41;;;;;;;24.20;21.63;;;0.40;99.90;;;;;;4979477;28;20444;-79
2023/03/01 06:21:09;;;;;;;26.60;22.90;;;0.40;99.90;;;;;;4972339;28;20465;-81
2023/03/01 06:23:37;;;;;;;25.37;21.97;;;0.40;99.90;;;;;;4970579;28;20488;-79
2023/03/01 06:26:07;;;;;;;25.70;23.00;;;0.50;99.90;;;;;;4968732;28;20448;-79
2023/03/01 06:28:33;;;;;;;24.73;22.00;;;0.50;99.90;;;;;;4976652;28;20906;-80
2023/03/01 06:31:00;;;;;;;28.00;23.30;;;0.50;99.90;;;;;;4961999;28;20457;-80
2023/03/01 06:33:27;;;;;;;27.80;24.10;;;0.50;99.90;;;;;;4958293;28;20535;-79
2023/03/01 06:35:56;;;;;;;33.13;24.27;;;0.50;99.90;;;;;;4960219;28;20516;-79
2023/03/01 06:38:23;;;;;;;27.20;22.97;;;0.40;99.90;;;;;;4960191;28;20464;-80
2023/03/01 06:40:54;;;;;;;26.33;23.53;;;0.30;99.90;;;;;;4974377;28;21025;-79
2023/03/01 06:43:21;;;;;;;25.07;21.80;;;0.30;99.90;;;;;;4973286;28;20459;-79
2023/03/01 06:45:48;;;;;;;25.83;22.07;;;0.30;99.90;;;;;;4982865;28;20870;-79
2023/03/01 06:48:15;;;;;;;28.37;23.63;;;0.40;99.90;;;;;;4973845;28;20474;-89
2023/03/01 06:50:42;;;;;;;28.73;22.73;;;0.40;99.90;;;;;;4970250;28;20476;-80
2023/03/01 06:53:09;;;;;;;26.57;22.23;;;0.50;99.90;;;;;;4969554;28;20447;-80
2023/03/01 06:55:36;;;;;;;25.83;22.03;;;0.80;99.90;;;;;;4969655;28;20461;-81
2023/03/01 06:58:04;;;;;;;24.90;22.20;;;0.90;99.90;;;;;;4951340;28;20903;-80
2023/03/01 07:00:32;;;;;;;25.63;22.87;;;1.20;99.90;;;;;;4948453;28;20434;-79
2023/03/01 07:03:01;;;;;;;23.93;21.27;;;1.40;99.90;;;;;;4948451;28;20456;-81
2023/03/01 07:05:28;;;;;;;25.33;22.53;;;1.60;99.90;;;;;;4966427;28;20828;-80
2023/03/01 07:07:56;;;;;;;30.17;24.83;;;1.80;99.90;;;;;;4973481;28;20501;-80
2023/03/01 07:10:23;;;;;;;27.67;23.73;;;1.80;99.90;;;;;;4977929;28;20449;-78
2023/03/01 07:12:50;;;;;;;26.87;22.60;;;2.00;99.90;;;;;;4979791;28;20487;-81
2023/03/01 07:15:18;;;;;;;26.03;23.23;;;2.00;99.90;;;;;;4970936;28;20442;-80
2023/03/01 07:17:47;;;;;;;26.27;23.07;;;2.10;99.90;;;;;;4969616;28;20963;-81
2023/03/01 07:20:15;;;;;;;25.67;22.33;;;2.20;99.90;;;;;;4966134;28;20229;-81
2023/03/01 07:22:42;;;;;;;28.00;23.67;;;2.40;99.90;;;;;;4976227;28;20276;-79
2023/03/01 07:25:10;;;;;;;27.03;22.60;;;2.50;99.90;;;;;;4968827;28;20194;-80
2023/03/01 07:27:37;;;;;;;25.70;22.93;;;2.70;99.90;;;;;;4967240;28;20216;-81
2023/03/01 07:30:05;;;;;;;25.80;23.07;;;2.70;99.90;;;;;;4977971;28;20284;-80
2023/03/01 07:32:33;;;;;;;25.27;22.30;;;2.70;99.90;;;;;;4974584;28;20276;-80
2023/03/01 07:35:00;;;;;;;25.47;22.57;;;2.60;99.90;;;;;;4968409;28;20197;-79
2023/03/01 07:37:27;;;;;;;28.43;22.87;;;2.60;99.90;;;;;;4979450;28;20257;-80
2023/03/01 07:39:54;;;;;;;24.80;21.63;;;2.50;99.90;;;;;;4981119;28;20197;-79
2023/03/01 07:42:21;;;;;;;25.63;22.33;;;2.40;99.90;;;;;;4975981;28;20696;-79
2023/03/01 07:44:47;;;;;;;28.17;23.13;;;2.30;99.90;;;;;;4973761;28;20203;-80
2023/03/01 07:47:14;;;;;;;27.27;23.63;;;2.30;99.90;;;;;;4974782;28;20581;-80
2023/03/01 07:49:42;;;;;;;25.90;23.00;;;2.30;99.90;;;;;;4977774;28;20297;-80
2023/03/01 07:52:11;;;;;;;25.83;22.50;;;2.50;99.90;;;;;;4970812;28;20237;-81
2023/03/01 07:54:38;;;;;;;28.93;24.00;;;2.80;99.90;;;;;;4978794;28;20287;-80
2023/03/01 07:57:05;;;;;;;25.43;22.83;;;3.00;99.90;;;;;;4976374;28;20198;-79
2023/03/01 07:59:32;;;;;;;28.70;23.90;;;2.90;99.90;;;;;;4976285;28;20193;-78
2023/03/01 08:01:59;;;;;;;25.37;22.30;;;3.00;99.90;;;;;;4972487;28;20243;-79
2023/03/01 08:04:26;;;;;;;24.57;21.97;;;3.20;99.90;;;;;;4974499;28;20211;-80
2023/03/01 08:06:54;;;;;;;27.23;23.97;;;3.50;99.90;;;;;;4973893;28;20432;-81
2023/03/01 08:09:22;;;;;;;29.53;24.07;;;3.80;99.90;;;;;;4983981;28;20253;-79
2023/03/01 08:11:49;;;;;;;28.83;23.47;;;3.70;99.90;;;;;;4982706;28;20297;-83
2023/03/01 08:14:15;;;;;;;24.70;22.20;;;3.90;99.90;;;;;;4974539;28;20203;-80
2023/03/01 08:16:42;;;;;;;26.53;23.60;;;4.10;99.90;;;;;;4958689;28;20223;-81
2023/03/01 08:19:11;;;;;;;28.27;23.90;;;4.00;99.90;;;;;;4969166;28;20719;-80
2023/03/01 08:21:38;;;;;;;25.73;23.03;;;4.10;99.90;;;;;;4969096;28;20226;-80
2023/03/01 08:24:09;;;;;;;27.23;23.13;;;4.20;99.90;;;;;;4970109;28;20668;-79
2023/03/01 08:26:37;;;;;;;25.47;22.77;;;3.90;99.90;;;;;;4972092;28;20198;-80
2023/03/01 08:29:04;;;;;;;29.30;23.70;;;4.00;99.90;;;;;;4974597;28;20281;-80
2023/03/01 08:31:35;;;;;;;24.07;21.17;;;4.00;99.90;;;;;;4975913;28;20222;-81
2023/03/01 08:34:04;;;;;;;26.20;23.37;;;4.20;99.90;;;;;;4981084;28;20283;-79
2023/03/01 08:36:32;;;;;;;26.87;22.40;;;4.40;99.90;;;;;;4967393;28;20205;-80
2023/03/01 08:39:00;;;;;;;25.73;23.03;;;4.10;99.90;;;;;;4968584;28;20208;-81
2023/03/01 08:41:29;;;;;;;26.50;23.80;;;4.40;99.90;;;;;;4976382;28;20218;-80
2023/03/01 08:43:58;;;;;;;26.90;23.83;;;4.50;99.90;;;;;;4980107;28;20209;-81
2023/03/01 08:46:26;;;;;;;25.90;22.83;;;4.30;99.90;;;;;;4972014;28;20257;-80
2023/03/01 08:48:53;;;;;;;26.03;23.30;;;4.10;99.90;;;;;;4972148;28;20712;-80
2023/03/01 08:51:22;;;;;;;27.60;23.60;;;4.10;99.90;;;;;;4976206;28;20246;-81
2023/03/01 08:53:49;;;;;;;26.53;23.80;;;3.90;99.90;;;;;;4974016;28;20585;-80
2023/03/01 08:56:18;;;;;;;25.30;22.63;;;4.10;99.90;;;;;;4983285;28;20281;-80
2023/03/01 08:58:47;;;;;;;26.00;23.40;;;4.60;99.90;;;;;;4979120;28;20262;-80
2023/03/01 09:01:18;;;;;;;25.07;22.33;;;4.70;99.90;;;;;;4970925;28;20250;-82
2023/03/01 09:03:46;;;;;;;27.53;23.77;;;5.00;99.90;;;;;;4976927;28;20203;-81
2023/03/01 09:06:14;;;;;;;24.37;21.90;;;5.10;99.90;;;;;;4971772;28;20199;-80
2023/03/01 09:08:42;;;;;;;24.57;21.93;;;5.40;99.90;;;;;;4974168;28;20204;-80
2023/03/01 09:11:15;;;;;;;26.73;22.70;;;5.60;99.90;;;;;;4972180;28;20249;-80
2023/03/01 09:13:42;;;;;;;27.37;23.13;;;5.60;99.90;;;;;;4971982;28;20228;-82
2023/03/01 09:16:13;;;;;;;27.77;23.77;;;5.70;99.90;;;;;;4980007;28;20200;-76
2023/03/01 09:18:40;;;;;;;25.47;23.00;;;5.60;99.90;;;;;;4971977;28;20203;-85
2023/03/01 09:21:09;;;;;;;26.73;22.77;;;6.00;99.90;;;;;;4985679;28;20224;-82
2023/03/01 09:23:38;;;;;;;25.00;22.50;;;6.20;99.90;;;;;;4977120;28;20207;-87
2023/03/01 09:26:05;;;;;;;25.70;22.90;;;6.30;99.90;;;;;;4980906;28;20215;-86
2023/03/01 09:28:32;;;;;;;28.47;24.13;;;6.10;99.90;;;;;;4967779;28;20588;-86
2023/03/01 09:31:00;;;;;;;27.90;23.57;;;5.90;99.90;;;;;;4967059;28;20254;-85
2023/03/01 09:33:28;;;;;;;26.53;23.83;;;6.00;99.90;;;;;;4977760;28;20661;-87
2023/03/01 09:35:59;;;;;;;25.70;23.03;;;6.00;99.90;;;;;;4972072;28;20204;-87
2023/03/01 09:38:26;;;;;;;28.53;23.17;;;6.20;99.90;;;;;;4981436;28;20341;-87
2023/03/01 09:40:53;;;;;;;26.17;23.20;;;6.30;99.90;;;;;;4980942;28;20225;-87
2023/03/01 09:43:30;;;;;;;25.90;23.30;;;6.70;99.90;;;;;;4977725;28;20288;-87
2023/03/01 09:46:04;;;;;;;25.87;23.17;;;7.00;99.90;;;;;;4967624;28;20236;-87
2023/03/01 09:48:38;;;;;;;27.30;23.73;;;7.10;99.90;;;;;;4968368;28;20237;-87
2023/03/01 09:51:09;;;;;;;26.13;23.33;;;7.00;99.90;;;;;;4976027;28;20224;-85
2023/03/01 09:53:36;;;;;;;27.03;24.20;;;7.00;99.90;;;;;;4950290;28;20226;-86
2023/03/01 09:56:10;;;;;;;26.33;23.60;;;6.80;99.90;;;;;;4963518;28;20203;-86
2023/03/01 09:58:47;;;;;;;27.10;24.13;;;6.60;99.90;;;;;;4967295;28;20198;-86
2023/03/01 10:01:31;;;;;;;25.67;23.00;;;6.70;99.90;;;;;;4970331;28;20299;-86
2023/03/01 10:04:29;;;;;;;25.30;22.70;;;6.80;99.90;;;;;;4968660;28;20206;-87
2023/03/01 10:07:13;;;;;;;27.00;23.97;;;7.00;99.90;;;;;;4969053;28;20209;-87
2023/03/01 10:09:42;;;;;;;25.90;23.17;;;6.80;99.90;;;;;;4968178;28;20233;-86
2023/03/01 10:12:13;;;;;;;25.03;22.47;;;6.80;99.90;;;;;;4965647;28;20234;-86
2023/03/01 10:14:48;;;;;;;26.93;24.13;;;6.70;99.90;;;;;;4961782;28;20224;-86
2023/03/01 10:17:26;;;;;;;26.97;24.20;;;6.80;99.90;;;;;;4960727;28;20692;-87
2023/03/01 10:19:56;;;;;;;24.77;22.27;;;6.50;99.90;;;;;;4963931;28;20281;-87
2023/03/01 10:22:27;;;;;;;26.67;23.97;;;6.50;99.90;;;;;;4968359;28;20233;-87
2023/03/01 10:25:00;;;;;;;26.23;23.53;;;6.50;99.90;;;;;;4957849;28;20211;-86
2023/03/01 10:27:38;;;;;;;25.23;22.60;;;6.30;99.90;;;;;;4956930;28;20194;-86
2023/03/01 10:30:15;;;;;;;24.97;22.27;;;6.20;99.90;;;;;;4971450;28;20220;-86
2023/03/01 10:32:43;;;;;;;25.30;22.23;;;6.10;99.90;;;;;;4970054;28;20264;-87
2023/03/01 10:35:20;;;;;;;23.63;21.13;;;5.90;99.90;;;;;;4959910;28;20219;-86
2023/03/01 10:38:04;;;;;;;25.20;22.60;;;6.20;99.90;;;;;;4946588;28;20208;-86
2023/03/01 10:40:31;;;;;;;30.73;23.40;;;6.20;99.90;;;;;;4956741;28;20193;-86
2023/03/01 10:43:00;;;;;;;26.50;23.60;;;5.90;99.90;;;;;;4958432;28;20207;-86
2023/03/01 10:45:36;;;;;;;23.63;21.23;;;6.00;99.90;;;;;;4962121;28;20209;-87
2023/03/01 10:48:13;;;;;;;25.03;22.30;;;6.10;99.90;;;;;;4968530;28;20217;-85
2023/03/01 10:50:44;;;;;;;26.57;22.90;;;6.20;99.90;;;;;;4948878;28;20223;-87
2023/03/01 10:53:28;;;;;;;24.87;22.17;;;6.10;99.90;;;;;;4970135;28;20213;-86
2023/03/01 10:56:01;;;;;;;22.33;20.17;;;6.20;99.90;;;;;;4967931;28;20206;-86
2023/03/01 10:58:30;;;;;;;22.67;20.33;;;6.30;99.90;;;;;;4962530;28;20246;-86
2023/03/01 11:00:58;;;;;;;24.00;20.50;;;6.40;99.90;;;;;;4967510;28;20236;-87
2023/03/01 11:03:27;;;;;;;24.80;22.23;;;6.50;99.90;;;;;;4956598;28;20205;-87
2023/03/01 11:06:02;;;;;;;23.93;21.43;;;6.30;99.90;;;;;;4954525;28;20692;-87
2023/03/01 11:08:41;;;;;;;23.07;20.57;;;6.20;99.90;;;;;;4964886;28;20589;-87
2023/03/01 11:11:19;;;;;;;22.07;19.77;;;6.30;99.90;;;;;;4950152;28;20241;-87
2023/03/01 11:13:53;;;;;;;24.90;22.20;;;6.30;99.90;;;;;;4957755;28;20276;-87
2023/03/01 11:16:27;;;;;;;23.73;21.10;;;6.20;99.90;;;;;;4956978;28;20202;-87
2023/03/01 11:19:02;;;;;;;22.43;20.23;;;6.30;99.90;;;;;;4962548;28;20215;-85
2023/03/01 11:21:34;;;;;;;24.67;21.23;;;6.30;99.90;;;;;;4961301;28;20232;-87
2023/03/01 11:24:02;;;;;;;23.57;21.13;;;6.20;99.90;;;;;;4965975;28;20267;-87
2023/03/01 11:26:35;;;;;;;23.47;21.10;;;6.20;99.90;;;;;;4966328;28;20237;-85
2023/03/01 11:29:07;;;;;;;23.30;21.00;;;6.30;99.90;;;;;;4967870;28;20246;-83
2023/03/01 11:31:36;;;;;;;23.10;20.73;;;6.10;99.90;;;;;;4972917;28;20223;-87
2023/03/01 11:34:12;;;;;;;23.73;21.43;;;6.20;99.90;;;;;;4965903;28;20218;-86
2023/03/01 11:36:47;;;;;;;23.27;20.83;;;6.20;99.90;;;;;;4962847;28;20220;-86
2023/03/01 11:39:25;;;;;;;23.63;20.73;;;6.10;99.90;;;;;;4971437;28;20208;-86
2023/03/01 11:42:02;;;;;;;23.13;20.53;;;6.20;99.90;;;;;;4969913;28;20242;-87
2023/03/01 11:44:35;;;;;;;23.47;21.13;;;6.20;99.90;;;;;;4960124;28;20212;-86
2023/03/01 11:47:23;;;;;;;23.33;20.83;;;6.20;99.90;;;;;;4970328;28;20307;-86
2023/03/01 11:50:05;;;;;;;23.43;20.93;;;6.30;99.90;;;;;;4962631;28;20281;-87
2023/03/01 11:52:45;;;;;;;23.83;21.33;;;6.40;99.90;;;;;;4967015;28;20741;-87
2023/03/01 11:55:35;;;;;;;24.00;21.50;;;6.50;99.90;;;;;;4969215;28;20204;-85
2023/03/01 11:58:15;;;;;;;24.13;21.63;;;6.50;99.90;;;;;;4955643;28;20267;-84
2023/03/01 12:01:03;;;;;;;22.90;20.50;;;6.50;99.90;;;;;;4953900;28;20229;-85
2023/03/01 12:03:42;;;;;;;24.40;21.70;;;6.60;99.90;;;;;;4960527;28;20690;-86
2023/03/01 12:06:26;;;;;;;22.97;20.57;;;6.60;99.90;;;;;;4954846;28;20210;-78
2023/03/01 12:09:05;;;;;;;24.70;20.63;;;6.60;99.90;;;;;;4950070;28;20208;-78
2023/03/01 12:11:43;;;;;;;21.63;19.40;;;6.60;99.90;;;;;;4941254;28;20228;-80
2023/03/01 12:14:26;;;;;;;21.03;18.93;;;6.70;99.90;;;;;;4945365;28;20209;-79
2023/03/01 12:17:33;;;;;;;20.67;18.53;;;6.90;99.90;;;;;;4956737;28;20653;-78
2023/03/01 12:20:13;;;;;;;21.70;19.40;;;6.90;99.90;;;;;;4942846;28;20573;-78
2023/03/01 12:22:55;;;;;;;20.57;18.57;;;6.90;99.90;;;;;;4955781;28;20248;-80
2023/03/01 12:25:29;;;;;;;22.67;18.70;;;6.80;99.90;;;;;;4951693;28;20680;-80
2023/03/01 12:28:19;;;;;;;21.70;19.50;;;6.90;99.90;;;;;;4953236;28;20201;-80
2023/03/01 12:31:01;;;;;;;21.17;18.93;;;6.90;99.90;;;;;;4952649;28;20228;-79
2023/03/01 12:33:39;;;;;;;20.83;18.73;;;7.00;99.90;;;;;;4946458;28;20268;-79
2023/03/01 12:36:19;;;;;;;20.40;18.33;;;7.10;99.90;;;;;;4953108;28;20198;-79
2023/03/01 12:38:51;;;;;;;22.27;19.97;;;7.00;99.90;;;;;;4953626;28;20237;-79
2023/03/01 12:41:38;;;;;;;22.20;19.63;;;7.10;99.90;;;;;;4951145;28;20784;-79
2023/03/01 12:44:15;;;;;;;21.70;19.43;;;7.00;99.90;;;;;;4955508;28;20750;-78
2023/03/01 12:47:01;;;;;;;25.33;20.70;;;7.00;99.90;;;;;;4947000;28;20205;-77
2023/03/01 12:49:34;;;;;;;21.07;18.80;;;7.00;99.90;;;;;;4948762;28;20265;-79
2023/03/01 12:52:09;;;;;;;21.73;19.53;;;7.10;99.90;;;;;;4950062;28;20225;-81
2023/03/01 12:54:37;;;;;;;21.97;19.70;;;7.20;99.90;;;;;;4956135;28;20212;-79
2023/03/01 12:57:16;;;;;;;21.67;19.57;;;7.10;99.90;;;;;;4950054;28;20217;-78
2023/03/01 12:59:51;;;;;;;20.23;18.20;;;7.20;99.90;;;;;;4951628;28;20285;-79
2023/03/01 13:02:25;;;;;;;22.43;20.10;;;7.20;99.90;;;;;;4954311;28;20781;-79
2023/03/01 13:05:03;;;;;;;21.37;19.17;;;7.20;99.90;;;;;;4952016;28;20206;-80
2023/03/01 13:07:36;;;;;;;22.67;20.27;;;7.20;99.90;;;;;;4946636;28;20205;-80
2023/03/01 13:10:20;;;;;;;21.73;19.10;;;7.20;99.90;;;;;;4950819;28;20215;-79
2023/03/01 13:13:03;;;;;;;21.80;19.60;;;7.30;99.90;;;;;;4950751;28;20209;-81
2023/03/01 13:15:33;;;;;;;22.13;20.00;;;7.40;99.90;;;;;;4952735;28;20220;-80
2023/03/01 13:18:02;;;;;;;20.80;18.70;;;7.40;99.90;;;;;;4950211;28;20256;-84
2023/03/01 13:20:34;;;;;;;21.27;19.07;;;7.40;99.90;;;;;;4948848;28;20734;-82
2023/03/01 13:23:07;;;;;;;20.90;18.90;;;7.50;99.90;;;;;;4949097;28;20210;-82
2023/03/01 13:25:35;;;;;;;23.57;20.33;;;7.50;99.90;;;;;;4948151;28;20339;-82
2023/03/01 13:28:38;;;;;;;23.00;20.50;;;7.50;99.90;;;;;;4949247;28;20214;-81
2023/03/01 13:31:06;;;;;;;24.07;21.47;;;7.50;99.90;;;;;;4951637;28;20225;-82
2023/03/01 13:33:47;;;;;;;23.30;20.57;;;7.60;99.90;;;;;;4952883;28;20202;-82
2023/03/01 13:36:48;;;;;;;24.43;21.87;;;7.60;99.90;;;;;;4948345;28;20217;-82
2023/03/01 13:39:40;;;;;;;24.03;21.57;;;7.60;99.90;;;;;;4952085;28;20206;-82
2023/03/01 13:42:34;;;;;;;23.00;20.67;;;7.60;99.90;;;;;;4954377;28;20231;-81
2023/03/01 13:45:03;;;;;;;21.43;19.23;;;7.60;99.90;;;;;;4950674;28;20211;-82
2023/03/01 13:47:30;;;;;;;25.20;20.43;;;7.60;99.90;;;;;;4946289;28;20245;-79
2023/03/01 13:49:59;;;;;;;22.87;20.37;;;;;;;;;;4957933;28;20289;-80
2023/03/01 13:52:37;;;;;;;23.07;20.70;;;8.20;99.90;;;;;;4954161;28;20252;-80
2023/03/01 13:55:16;;;;;;;24.80;19.80;;;7.80;99.90;;;;;;4963727;28;20231;-82
2023/03/01 13:57:46;;;;;;;23.63;20.50;;;7.90;99.90;;;;;;4952126;28;20230;-81
2023/03/01 14:00:29;;;;;;;23.37;21.07;;;7.80;99.90;;;;;;4973311;28;20209;-81
2023/03/01 14:03:10;;;;;;;24.67;21.00;;;7.80;99.90;;;;;;4970781;28;20208;-79
2023/03/01 14:05:38;;;;;;;23.40;20.57;;;7.70;99.90;;;;;;4956208;28;20263;-82
2023/03/01 14:08:06;;;;;;;24.07;21.37;;;7.80;99.90;;;;;;4960590;28;20932;-80
2023/03/01 14:10:44;;;;;;;23.57;21.17;;;8.00;99.90;;;;;;4960362;28;20277;-80
2023/03/01 14:13:25;;;;;;;22.20;19.93;;;7.80;99.90;;;;;;4964938;28;20221;-80
2023/03/01 14:16:07;;;;;;;23.97;21.50;;;7.80;99.90;;;;;;4962339;28;20229;-81
2023/03/01 14:18:40;;;;;;;22.80;20.40;;;7.70;99.90;;;;;;4962413;28;20260;-83
2023/03/01 14:21:09;;;;;;;22.07;19.77;;;8.30;99.90;;;;;;4975109;28;20229;-81
2023/03/01 14:23:39;;;;;;;22.93;20.43;;;7.80;99.90;;;;;;4967630;28;20222;-81
2023/03/01 14:26:08;;;;;;;22.23;20.00;;;7.90;99.90;;;;;;4964564;28;20275;-82
2023/03/01 14:28:38;;;;;;;22.83;20.47;;;7.80;99.90;;;;;;4968957;28;20196;-82
2023/03/01 14:31:32;;;;;;;23.17;19.73;;;7.90;99.90;;;;;;4951968;28;20596;-82
2023/03/01 14:34:00;;;;;;;21.70;19.57;;;8.00;99.90;;;;;;4956035;28;20218;-81
2023/03/01 14:36:28;;;;;;;23.40;20.90;;;8.00;99.90;;;;;;4945600;28;20209;-80
2023/03/01 14:38:55;;;;;;;21.87;19.67;;;8.00;99.90;;;;;;4953334;28;20214;-79
2023/03/01 14:41:24;;;;;;;21.17;18.97;;;8.00;99.90;;;;;;4964537;28;20296;-79
2023/03/01 14:43:55;;;;;;;22.43;20.00;;;8.00;99.90;;;;;;4970082;28;20213;-79
2023/03/01 14:46:29;;;;;;;23.70;21.30;;;8.10;99.90;;;;;;4958577;28;20492;-77
2023/03/01 14:49:01;;;;;;;22.20;20.13;;;8.10;99.90;;;;;;4951277;28;20207;-80
2023/03/01 14:51:28;;;;;;;21.83;19.63;;;8.00;99.90;;;;;;4954469;28;20276;-78
2023/03/01 14:53:56;;;;;;;22.47;20.27;;;8.10;99.90;;;;;;4962419;28;20199;-79
2023/03/01 14:56:23;;;;;;;21.97;19.67;;;8.10;99.90;;;;;;4968016;28;20199;-81
2023/03/01 14:58:53;;;;;;;23.00;20.20;;;8.00;99.90;;;;;;4973606;28;20208;-78
2023/03/01 15:01:20;;;;;;;22.10;19.90;;;8.00;99.90;;;;;;4972947;28;20246;-81
2023/03/01 15:03:50;;;;;;;22.87;20.43;;;8.00;99.90;;;;;;4964953;28;20642;-77
2023/03/01 15:06:20;;;;;;;22.63;20.27;;;8.00;99.90;;;;;;4957982;28;20198;-83
2023/03/01 15:08:50;;;;;;;21.50;19.30;;;8.00;99.90;;;;;;4954956;28;20234;-81
2023/03/01 15:11:24;;;;;;;22.43;20.33;;;7.90;99.90;;;;;;4949933;28;20230;-82
2023/03/01 15:13:51;;;;;;;23.63;20.53;;;7.90;99.90;;;;;;4951893;28;20210;-81
2023/03/01 15:16:20;;;;;;;22.43;20.10;;;7.90;99.90;;;;;;4954233;28;20210;-84
2023/03/01 15:18:50;;;;;;;23.27;20.87;;;8.00;99.90;;;;;;4950463;28;20664;-84
2023/03/01 15:21:19;;;;;;;23.53;21.10;;;7.90;99.90;;;;;;4954728;28;20234;-82
2023/03/01 15:23:50;;;;;;;23.30;20.80;;;7.60;99.90;;;;;;4948536;28;20244;-84
2023/03/01 15:26:26;;;;;;;23.30;20.97;;;7.60;99.90;;;;;;4951367;28;20199;-80
2023/03/01 15:28:57;;;;;;;25.17;21.67;;;7.60;99.90;;;;;;4949581;28;20206;-81
2023/03/01 15:31:26;;;;;;;24.27;21.87;;;7.50;99.90;;;;;;4952320;28;20227;-80
2023/03/01 15:34:09;;;;;;;22.73;20.20;;;7.50;99.90;;;;;;4950354;28;20261;-80
2023/03/01 15:36:43;;;;;;;24.67;20.57;;;7.50;99.90;;;;;;4948938;28;20205;-81
2023/03/01 15:39:38;;;;;;;24.77;21.77;;;7.50;99.90;;;;;;4948389;28;20301;-84
2023/03/01 15:42:07;;;;;;;22.70;20.40;;;7.40;99.90;;;;;;4957593;28;20230;-82
2023/03/01 15:44:36;;;;;;;22.23;19.73;;;7.30;99.90;;;;;;4959301;28;20194;-83
2023/03/01 15:47:09;;;;;;;22.23;19.87;;;7.30;99.90;;;;;;4958341;28;20210;-84
2023/03/01 15:49:41;;;;;;;22.07;19.83;;;7.20;99.90;;;;;;4951755;28;20272;-82
2023/03/01 15:52:13;;;;;;;22.03;19.63;;;7.20;99.90;;;;;;4958057;28;20905;-83
2023/03/01 15:54:41;;;;;;;22.10;19.30;;;7.20;99.90;;;;;;4952454;28;20202;-81
2023/03/01 15:57:14;;;;;;;27.47;21.23;;;7.10;99.90;;;;;;4949007;28;20212;-84
2023/03/01 15:59:41;;;;;;;23.37;20.67;;;7.10;99.90;;;;;;4950958;28;20229;-79
2023/03/01 16:02:10;;;;;;;23.30;20.80;;;7.10;99.90;;;;;;4956196;28;20233;-79